Seattle Express — A8GU5 — position and weather

sailwx.info

Track history (hours):
 
Tides and Currents Weather Stations Pressure Air Temp Water Temp Dewpoint Dewpoint Depression Visibility Wind Speed Wind Dir Waves Ship Positions

Seattle Express

Last reported at 2015-Sep-02 10:33 UTC. Time now 2015-Sep-02 10:41 UTC.
Position N 44°06' E 009°51'.

Length 264.1 m; beam 32.3 m; draft 12.5 m.

Type: Ship (hazmat cat A). MMSI: 636090860.

Date/timePositionNaut miles runAvg speedWind from/ knotsBaromVisibWave heightAir tempDewpointWater temp
2015-Sep-02 10:33N 44°06' E 009°51'7 7.5
2015-Sep-02 09:34N 43°59' E 009°54'2 2.1
2015-Sep-02 08:33N 43°57' E 009°53'0 0.3
2015-Sep-02 07:33N 43°57' E 009°53'7 7.3
2015-Sep-02 06:34N 43°55' E 009°44'1414.4
2015-Sep-02 05:33N 43°48' E 009°26'9217.6
2015-Sep-02 00:20N 43°05' E 007°34'1418.3
2015-Sep-01 23:33N 42°58' E 007°17'1818.1
2015-Sep-01 22:34N 42°50' E 006°55'1817.6
2015-Sep-01 21:33N 42°45' E 006°32'6416.1
2015-Sep-01 17:33N 43°05' E 005°08'1717.3
2015-Sep-01 16:34N 43°20' E 004°58'8 7.8
2015-Sep-01 15:34N 43°25' E 004°50'0 0.0
2015-Sep-01 14:31N 43°25' E 004°50'0 0.0
2015-Sep-01 13:31N 43°25' E 004°50'0 0.0
2015-Sep-01 12:31N 43°25' E 004°50'0 0.0
2015-Sep-01 11:31N 43°25' E 004°50'0 0.0
2015-Sep-01 10:31N 43°25' E 004°50'0 0.0
2015-Sep-01 09:25N 43°25' E 004°50'0 0.0
2015-Sep-01 08:31N 43°25' E 004°50'0 0.0
2015-Sep-01 07:31N 43°25' E 004°50'0 0.0
2015-Sep-01 06:34N 43°25' E 004°50'0 0.0
2015-Sep-01 05:24N 43°25' E 004°50'0 0.0
2015-Sep-01 04:30N 43°25' E 004°50'0 0.0
2015-Sep-01 03:30N 43°25' E 004°50'4 4.1
2015-Sep-01 02:34N 43°24' E 004°55'9 8.6
2015-Sep-01 01:34N 43°16' E 005°01'1412.6
2015-Sep-01 00:27N 43°03' E 004°54'6215.1
2015-Aug-31 20:22N 42°14' E 004°02'1215.2
2015-Aug-31 19:33N 42°05' E 003°52'1716.1
2015-Aug-31 18:32N 41°51' E 003°39'1816.4
2015-Aug-31 17:27N 41°37' E 003°24'1516.3
2015-Aug-31 16:32N 41°26' E 003°12'1616.0
2015-Aug-31 15:33N 41°13' E 002°59'1716.7
2015-Aug-31 14:33N 40°60' E 002°46'1716.8
2015-Aug-31 13:33N 40°46' E 002°32'1918.7
2015-Aug-31 12:33N 40°32' E 002°17'2019.8
2015-Aug-31 11:33N 40°16' E 002°01'2019.8
2015-Aug-31 10:33N 40°00' E 001°45'1919.4
2015-Aug-31 09:34N 39°45' E 001°30'1919.2
2015-Aug-31 08:33N 39°29' E 001°15'11819.0
2015-Aug-31 02:22N 37°54' W 000°13'1518.4
2015-Aug-31 01:33N 37°42' W 000°24'1918.1
2015-Aug-31 00:31N 37°27' W 000°38'1818.8
2015-Aug-30 23:33N 37°15' W 000°55'3918.4
2015-Aug-30 21:28N 36°48' W 001°30'1718.4
2015-Aug-30 20:33N 36°36' W 001°44'1918.7
2015-Aug-30 19:33N 36°25' W 002°03'1818.3
2015-Aug-30 18:33N 36°20' W 002°25'36416.5
2015-Aug-29 20:32N 37°38' W 009°50'2020.0
2015-Aug-29 19:33N 37°58' W 009°54'2020.1
2015-Aug-29 18:33N 38°17' W 009°59'2020.4
2015-Aug-29 17:33N 38°37' W 010°04'2121.1
2015-Aug-29 16:33N 38°58' W 010°06'2121.1
2015-Aug-29 15:33N 39°20' W 010°07'2120.9
2015-Aug-29 14:33N 39°40' W 010°09'2120.8
2015-Aug-29 13:33N 40°01' W 010°06'2020.5
2015-Aug-29 12:33N 40°22' W 010°06'69217.3
2015-Aug-27 20:33N 49°38' W 000°25'1515.2
2015-Aug-27 19:33N 49°31' W 000°04'9 8.7
2015-Aug-27 18:33N 49°28' E 000°09'0 0.0
2015-Aug-27 17:33N 49°28' E 000°09'0 0.0
2015-Aug-27 16:33N 49°28' E 000°09'0 0.0
2015-Aug-27 15:33N 49°28' E 000°09'0 0.0
2015-Aug-27 14:33N 49°28' E 000°09'0 0.0
2015-Aug-27 13:33N 49°28' E 000°09'0 0.0
2015-Aug-27 12:33N 49°28' E 000°09'0 0.0
2015-Aug-27 11:33N 49°28' E 000°09'3 3.5
2015-Aug-27 10:33N 49°29' E 000°04'1313.0
2015-Aug-27 09:33N 49°34' W 000°15'1313.4
2015-Aug-27 08:33N 49°45' W 000°25'5217.1
2015-Aug-27 05:32N 50°30' E 000°14'2020.7
2015-Aug-27 04:33N 50°40' E 000°42'2222.2
2015-Aug-27 03:33N 50°52' E 001°11'2221.6
2015-Aug-27 02:34N 51°08' E 001°35'2020.4
2015-Aug-27 01:34N 51°24' E 001°54'1717.3
2015-Aug-27 00:34N 51°21' E 002°22'1616.1
2015-Aug-26 23:34N 51°22' E 002°47'1515.0
2015-Aug-26 22:33N 51°24' E 003°11'1515.0
2015-Aug-26 21:33N 51°26' E 003°35'10 9.6
2015-Aug-26 20:33N 51°21' E 003°48'9 9.3
2015-Aug-26 19:34N 51°24' E 004°02'9 9.2
2015-Aug-26 18:33N 51°21' E 004°16'1 0.7
2015-Aug-26 17:33N 51°21' E 004°17'1 0.5
2015-Aug-26 16:33N 51°21' E 004°18'1 1.5
2015-Aug-26 15:33N 51°19' E 004°20'0 0.0
2015-Aug-26 14:26N 51°19' E 004°20'0 0.0
2015-Aug-26 13:29N 51°19' E 004°20'0 0.0
2015-Aug-26 12:32N 51°19' E 004°20'0 0.0
2015-Aug-26 11:26N 51°19' E 004°20'0 0.0
2015-Aug-26 10:29N 51°19' E 004°20'0 0.0
2015-Aug-26 09:32N 51°19' E 004°20'0 0.0
2015-Aug-26 08:32N 51°19' E 004°20'0 0.0
2015-Aug-26 07:32N 51°19' E 004°20'0 0.0
2015-Aug-26 06:32N 51°19' E 004°20'0 0.0
2015-Aug-26 05:32N 51°19' E 004°20'0 0.0
2015-Aug-26 04:26N 51°19' E 004°20'0 0.0
2015-Aug-26 03:31N 51°19' E 004°20'0 0.0
2015-Aug-26 02:31N 51°19' E 004°20'0 0.0
2015-Aug-26 01:31N 51°19' E 004°20'0 0.0
2015-Aug-26 00:31N 51°19' E 004°20'0 0.0
2015-Aug-25 23:28N 51°19' E 004°20'0 0.0
2015-Aug-25 22:31N 51°19' E 004°20'0 0.0
2015-Aug-25 21:31N 51°19' E 004°20'0 0.0
2015-Aug-25 20:31N 51°19' E 004°20'0 0.0
2015-Aug-25 19:31N 51°19' E 004°20'0 0.0
2015-Aug-25 18:31N 51°19' E 004°20'0 0.0
2015-Aug-25 17:28N 51°19' E 004°20'0 0.0
2015-Aug-25 16:31N 51°19' E 004°20'0 0.0
2015-Aug-25 15:31N 51°19' E 004°20'0 0.0
2015-Aug-25 14:28N 51°19' E 004°20'0 0.0
2015-Aug-25 13:28N 51°19' E 004°20'0 0.0
2015-Aug-25 12:31N 51°19' E 004°20'0 0.0
2015-Aug-25 11:28N 51°19' E 004°20'0 0.0
2015-Aug-25 10:28N 51°19' E 004°20'0 0.0
2015-Aug-25 09:31N 51°19' E 004°20'0 0.0
2015-Aug-25 08:33N 51°19' E 004°20'2 2.0
2015-Aug-25 07:33N 51°21' E 004°17'0 0.0
2015-Aug-25 06:34N 51°21' E 004°17'5 4.6
2015-Aug-25 05:33N 51°24' E 004°12'6 6.1
2015-Aug-25 04:33N 51°24' E 004°02'3 3.1
2015-Aug-25 03:33N 51°24' E 003°57'9 8.6
2015-Aug-25 02:33N 51°23' E 003°44'8 7.7
2015-Aug-25 01:33N 51°25' E 003°32'6 6.3
2015-Aug-25 00:33N 51°24' E 003°22'1211.6
2015-Aug-24 23:34N 51°25' E 003°03'1211.9
2015-Aug-24 22:32N 51°36' E 003°10'16 7.0
2015-Aug-24 20:16N 51°51' E 003°17'4 5.6
2015-Aug-24 19:34N 51°55' E 003°19'1111.0
2015-Aug-24 18:33N 52°04' E 003°30'1414.3
2015-Aug-24 17:33N 52°03' E 003°53'9 8.7
2015-Aug-24 16:33N 51°58' E 004°04'0 0.0
2015-Aug-24 15:33N 51°58' E 004°04'0 0.0
2015-Aug-24 14:31N 51°58' E 004°04'0 0.0
2015-Aug-24 13:31N 51°58' E 004°04'0 0.0
2015-Aug-24 12:31N 51°58' E 004°04'0 0.0
2015-Aug-24 11:31N 51°58' E 004°04'0 0.0
2015-Aug-24 10:31N 51°58' E 004°04'0 0.0
2015-Aug-24 09:31N 51°58' E 004°04'0 0.0
2015-Aug-24 08:31N 51°58' E 004°04'0 0.0
2015-Aug-24 07:31N 51°58' E 004°04'0 0.0
2015-Aug-24 06:31N 51°58' E 004°04'0 0.0
2015-Aug-24 05:33N 51°58' E 004°04'3 3.4
2015-Aug-24 04:33N 51°60' E 003°60'1110.8
2015-Aug-24 03:33N 51°59' E 003°42'1211.8
2015-Aug-24 02:33N 51°55' E 003°24'2114.6
2015-Aug-24 01:05N 51°49' E 002°51'1415.4
2015-Aug-24 00:10N 51°42' E 002°31'1216.1
2015-Aug-23 23:25N 51°34' E 002°17'1416.2
2015-Aug-23 22:33N 51°22' E 002°05'1312.9
2015-Aug-23 21:34N 51°11' E 001°55'1616.0
2015-Aug-23 20:34N 51°01' E 001°36'1818.0
2015-Aug-23 19:32N 50°44' E 001°22'  
Track history (hours):
 
Tides and Currents Weather Stations Pressure Air Temp Water Temp Dewpoint Dewpoint Depression Visibility Wind Speed Wind Dir Waves Ship Positions

Seattle Express

Last reported at 2015-Sep-02 10:33 UTC. Time now 2015-Sep-02 10:41 UTC.
Position N 44°06' E 009°51'.

Length 264.1 m; beam 32.3 m; draft 12.5 m.

Type: Ship (hazmat cat A). MMSI: 636090860.

Date/timePositionNaut miles runAvg speedWind from/ knotsBaromVisibWave heightAir tempDewpointWater temp
2015-Sep-02 10:33N 44°06' E 009°51'7 7.5
2015-Sep-02 09:34N 43°59' E 009°54'2 2.1
2015-Sep-02 08:33N 43°57' E 009°53'0 0.3
2015-Sep-02 07:33N 43°57' E 009°53'7 7.3
2015-Sep-02 06:34N 43°55' E 009°44'1414.4
2015-Sep-02 05:33N 43°48' E 009°26'9217.6
2015-Sep-02 00:20N 43°05' E 007°34'1418.3
2015-Sep-01 23:33N 42°58' E 007°17'1818.1
2015-Sep-01 22:34N 42°50' E 006°55'1817.6
2015-Sep-01 21:33N 42°45' E 006°32'6416.1
2015-Sep-01 17:33N 43°05' E 005°08'1717.3
2015-Sep-01 16:34N 43°20' E 004°58'8 7.8
2015-Sep-01 15:34N 43°25' E 004°50'0 0.0
2015-Sep-01 14:31N 43°25' E 004°50'0 0.0
2015-Sep-01 13:31N 43°25' E 004°50'0 0.0
2015-Sep-01 12:31N 43°25' E 004°50'0 0.0
2015-Sep-01 11:31N 43°25' E 004°50'0 0.0
2015-Sep-01 10:31N 43°25' E 004°50'0 0.0
2015-Sep-01 09:25N 43°25' E 004°50'0 0.0
2015-Sep-01 08:31N 43°25' E 004°50'0 0.0
2015-Sep-01 07:31N 43°25' E 004°50'0 0.0
2015-Sep-01 06:34N 43°25' E 004°50'0 0.0
2015-Sep-01 05:24N 43°25' E 004°50'0 0.0
2015-Sep-01 04:30N 43°25' E 004°50'0 0.0
2015-Sep-01 03:30N 43°25' E 004°50'4 4.1
2015-Sep-01 02:34N 43°24' E 004°55'9 8.6
2015-Sep-01 01:34N 43°16' E 005°01'1412.6
2015-Sep-01 00:27N 43°03' E 004°54'6215.1
2015-Aug-31 20:22N 42°14' E 004°02'1215.2
2015-Aug-31 19:33N 42°05' E 003°52'1716.1
2015-Aug-31 18:32N 41°51' E 003°39'1816.4
2015-Aug-31 17:27N 41°37' E 003°24'1516.3
2015-Aug-31 16:32N 41°26' E 003°12'1616.0
2015-Aug-31 15:33N 41°13' E 002°59'1716.7
2015-Aug-31 14:33N 40°60' E 002°46'1716.8
2015-Aug-31 13:33N 40°46' E 002°32'1918.7
2015-Aug-31 12:33N 40°32' E 002°17'2019.8
2015-Aug-31 11:33N 40°16' E 002°01'2019.8
2015-Aug-31 10:33N 40°00' E 001°45'1919.4
2015-Aug-31 09:34N 39°45' E 001°30'1919.2
2015-Aug-31 08:33N 39°29' E 001°15'11819.0
2015-Aug-31 02:22N 37°54' W 000°13'1518.4
2015-Aug-31 01:33N 37°42' W 000°24'1918.1
2015-Aug-31 00:31N 37°27' W 000°38'1818.8
2015-Aug-30 23:33N 37°15' W 000°55'3918.4
2015-Aug-30 21:28N 36°48' W 001°30'1718.4
2015-Aug-30 20:33N 36°36' W 001°44'1918.7
2015-Aug-30 19:33N 36°25' W 002°03'1818.3
2015-Aug-30 18:33N 36°20' W 002°25'36416.5
2015-Aug-29 20:32N 37°38' W 009°50'2020.0
2015-Aug-29 19:33N 37°58' W 009°54'2020.1
2015-Aug-29 18:33N 38°17' W 009°59'2020.4
2015-Aug-29 17:33N 38°37' W 010°04'2121.1
2015-Aug-29 16:33N 38°58' W 010°06'2121.1
2015-Aug-29 15:33N 39°20' W 010°07'2120.9
2015-Aug-29 14:33N 39°40' W 010°09'2120.8
2015-Aug-29 13:33N 40°01' W 010°06'2020.5
2015-Aug-29 12:33N 40°22' W 010°06'69217.3
2015-Aug-27 20:33N 49°38' W 000°25'1515.2
2015-Aug-27 19:33N 49°31' W 000°04'9 8.7
2015-Aug-27 18:33N 49°28' E 000°09'0 0.0
2015-Aug-27 17:33N 49°28' E 000°09'0 0.0
2015-Aug-27 16:33N 49°28' E 000°09'0 0.0
2015-Aug-27 15:33N 49°28' E 000°09'0 0.0
2015-Aug-27 14:33N 49°28' E 000°09'0 0.0
2015-Aug-27 13:33N 49°28' E 000°09'0 0.0
2015-Aug-27 12:33N 49°28' E 000°09'0 0.0
2015-Aug-27 11:33N 49°28' E 000°09'3 3.5
2015-Aug-27 10:33N 49°29' E 000°04'1313.0
2015-Aug-27 09:33N 49°34' W 000°15'1313.4
2015-Aug-27 08:33N 49°45' W 000°25'5217.1
2015-Aug-27 05:32N 50°30' E 000°14'2020.7
2015-Aug-27 04:33N 50°40' E 000°42'2222.2
2015-Aug-27 03:33N 50°52' E 001°11'2221.6
2015-Aug-27 02:34N 51°08' E 001°35'2020.4
2015-Aug-27 01:34N 51°24' E 001°54'1717.3
2015-Aug-27 00:34N 51°21' E 002°22'1616.1
2015-Aug-26 23:34N 51°22' E 002°47'1515.0
2015-Aug-26 22:33N 51°24' E 003°11'1515.0
2015-Aug-26 21:33N 51°26' E 003°35'10 9.6
2015-Aug-26 20:33N 51°21' E 003°48'9 9.3
2015-Aug-26 19:34N 51°24' E 004°02'9 9.2
2015-Aug-26 18:33N 51°21' E 004°16'1 0.7
2015-Aug-26 17:33N 51°21' E 004°17'1 0.5
2015-Aug-26 16:33N 51°21' E 004°18'1 1.5
2015-Aug-26 15:33N 51°19' E 004°20'0 0.0
2015-Aug-26 14:26N 51°19' E 004°20'0 0.0
2015-Aug-26 13:29N 51°19' E 004°20'0 0.0
2015-Aug-26 12:32N 51°19' E 004°20'0 0.0
2015-Aug-26 11:26N 51°19' E 004°20'0 0.0
2015-Aug-26 10:29N 51°19' E 004°20'0 0.0
2015-Aug-26 09:32N 51°19' E 004°20'0 0.0
2015-Aug-26 08:32N 51°19' E 004°20'0 0.0
2015-Aug-26 07:32N 51°19' E 004°20'0 0.0
2015-Aug-26 06:32N 51°19' E 004°20'0 0.0
2015-Aug-26 05:32N 51°19' E 004°20'0 0.0
2015-Aug-26 04:26N 51°19' E 004°20'0 0.0
2015-Aug-26 03:31N 51°19' E 004°20'0 0.0
2015-Aug-26 02:31N 51°19' E 004°20'0 0.0
2015-Aug-26 01:31N 51°19' E 004°20'0 0.0
2015-Aug-26 00:31N 51°19' E 004°20'0 0.0
2015-Aug-25 23:28N 51°19' E 004°20'0 0.0
2015-Aug-25 22:31N 51°19' E 004°20'0 0.0
2015-Aug-25 21:31N 51°19' E 004°20'0 0.0
2015-Aug-25 20:31N 51°19' E 004°20'0 0.0
2015-Aug-25 19:31N 51°19' E 004°20'0 0.0
2015-Aug-25 18:31N 51°19' E 004°20'0 0.0
2015-Aug-25 17:28N 51°19' E 004°20'0 0.0
2015-Aug-25 16:31N 51°19' E 004°20'0 0.0
2015-Aug-25 15:31N 51°19' E 004°20'0 0.0
2015-Aug-25 14:28N 51°19' E 004°20'0 0.0
2015-Aug-25 13:28N 51°19' E 004°20'0 0.0
2015-Aug-25 12:31N 51°19' E 004°20'0 0.0
2015-Aug-25 11:28N 51°19' E 004°20'0 0.0
2015-Aug-25 10:28N 51°19' E 004°20'0 0.0
2015-Aug-25 09:31N 51°19' E 004°20'0 0.0
2015-Aug-25 08:33N 51°19' E 004°20'2 2.0
2015-Aug-25 07:33N 51°21' E 004°17'0 0.0
2015-Aug-25 06:34N 51°21' E 004°17'5 4.6
2015-Aug-25 05:33N 51°24' E 004°12'6 6.1
2015-Aug-25 04:33N 51°24' E 004°02'3 3.1
2015-Aug-25 03:33N 51°24' E 003°57'9 8.6
2015-Aug-25 02:33N 51°23' E 003°44'8 7.7
2015-Aug-25 01:33N 51°25' E 003°32'6 6.3
2015-Aug-25 00:33N 51°24' E 003°22'1211.6
2015-Aug-24 23:34N 51°25' E 003°03'1211.9
2015-Aug-24 22:32N 51°36' E 003°10'16 7.0
2015-Aug-24 20:16N 51°51' E 003°17'4 5.6
2015-Aug-24 19:34N 51°55' E 003°19'1111.0
2015-Aug-24 18:33N 52°04' E 003°30'1414.3
2015-Aug-24 17:33N 52°03' E 003°53'9 8.7
2015-Aug-24 16:33N 51°58' E 004°04'0 0.0
2015-Aug-24 15:33N 51°58' E 004°04'0 0.0
2015-Aug-24 14:31N 51°58' E 004°04'0 0.0
2015-Aug-24 13:31N 51°58' E 004°04'0 0.0
2015-Aug-24 12:31N 51°58' E 004°04'0 0.0
2015-Aug-24 11:31N 51°58' E 004°04'0 0.0
2015-Aug-24 10:31N 51°58' E 004°04'0 0.0
2015-Aug-24 09:31N 51°58' E 004°04'0 0.0
2015-Aug-24 08:31N 51°58' E 004°04'0 0.0
2015-Aug-24 07:31N 51°58' E 004°04'0 0.0
2015-Aug-24 06:31N 51°58' E 004°04'0 0.0
2015-Aug-24 05:33N 51°58' E 004°04'3 3.4
2015-Aug-24 04:33N 51°60' E 003°60'1110.8
2015-Aug-24 03:33N 51°59' E 003°42'1211.8
2015-Aug-24 02:33N 51°55' E 003°24'2114.6
2015-Aug-24 01:05N 51°49' E 002°51'1415.4
2015-Aug-24 00:10N 51°42' E 002°31'1216.1
2015-Aug-23 23:25N 51°34' E 002°17'1416.2
2015-Aug-23 22:33N 51°22' E 002°05'1312.9
2015-Aug-23 21:34N 51°11' E 001°55'1616.0
2015-Aug-23 20:34N 51°01' E 001°36'1818.0
2015-Aug-23 19:32N 50°44' E 001°22'  

Dump ship's entire track history